Time;durP1;ratioP1;P1;durP2;ratioP2;P2;SDS_P1;SDS_P2;PMS_P1;PMS_P2;Temp;Humidity;BMP_temperature;BMP_pressure;BME280_temperature;BME280_humidity;BME280_pressure;Samples;Min_cycle;Max_cycle;Signal;HPM_P1;HPM_P2
2020/12/30 00:01:39;;;;;;;10.63;9.82;;;-1.60;74.70;;;;;;5121564;28;20114;-72
2020/12/30 00:04:11;;;;;;;10.98;10.18;;;-1.60;75.70;;;;;;5124595;28;20047;-72
2020/12/30 00:06:44;;;;;;;11.02;10.13;;;-1.70;76.70;;;;;;5106235;28;20158;-71
2020/12/30 00:09:15;;;;;;;10.95;10.02;;;-1.80;76.80;;;;;;5108107;28;20073;-72
2020/12/30 00:11:47;;;;;;;10.73;9.93;;;-1.90;77.60;;;;;;5122231;28;20524;-72
2020/12/30 00:14:18;;;;;;;10.73;9.93;;;-2.00;78.00;;;;;;5125005;28;20062;-71
2020/12/30 00:16:49;;;;;;;10.27;9.48;;;-2.00;77.90;;;;;;5124300;28;20078;-72
2020/12/30 00:19:21;;;;;;;10.38;9.57;;;-2.00;78.70;;;;;;5125373;28;20054;-71
2020/12/30 00:21:52;;;;;;;10.18;9.38;;;-2.00;78.30;;;;;;5109232;28;20807;-72
2020/12/30 00:24:24;;;;;;;11.00;10.10;;;-2.10;78.50;;;;;;5126690;28;20125;-71
2020/12/30 00:26:55;;;;;;;10.32;9.52;;;-2.10;78.10;;;;;;5126402;28;20112;-69
2020/12/30 00:29:26;;;;;;;10.70;9.80;;;-2.20;77.00;;;;;;5100841;28;20044;-71
2020/12/30 00:31:58;;;;;;;11.10;10.30;;;-2.30;77.40;;;;;;5108713;28;20814;-71
2020/12/30 00:34:29;;;;;;;11.10;10.10;;;-2.40;78.30;;;;;;5123541;28;20378;-71
2020/12/30 00:37:01;;;;;;;10.40;9.60;;;-2.40;80.20;;;;;;5107606;28;20079;-70
2020/12/30 00:39:32;;;;;;;10.65;9.75;;;-2.40;80.50;;;;;;5108111;28;20054;-71
2020/12/30 00:42:04;;;;;;;10.70;9.90;;;-2.40;79.90;;;;;;5123253;28;20078;-71
2020/12/30 00:44:37;;;;;;;10.30;9.50;;;-2.30;79.90;;;;;;5106485;28;20098;-71
2020/12/30 00:47:08;;;;;;;10.40;9.60;;;-2.30;79.60;;;;;;5120888;28;20043;-71
2020/12/30 00:49:40;;;;;;;10.50;9.70;;;-2.30;78.90;;;;;;5117086;28;20053;-71
2020/12/30 00:52:13;;;;;;;10.23;9.43;;;-2.30;78.10;;;;;;5117773;28;20043;-72
2020/12/30 00:54:49;;;;;;;9.88;9.07;;;-2.30;77.90;;;;;;5123645;28;20158;-71
2020/12/30 00:57:30;;;;;;;10.63;9.80;;;-2.40;77.80;;;;;;5119693;28;20613;-71
2020/12/30 01:00:03;;;;;;;10.48;9.60;;;-2.40;77.90;;;;;;5123223;28;20047;-72
2020/12/30 01:02:54;;;;;;;9.85;9.15;;;-2.30;77.00;;;;;;5121871;28;20593;-71
2020/12/30 01:05:26;;;;;;;10.10;9.30;;;-2.30;76.80;;;;;;5121585;28;20049;-72
2020/12/30 01:07:57;;;;;;;10.05;9.15;;;-2.30;76.10;;;;;;5123153;28;20030;-72
2020/12/30 01:10:29;;;;;;;9.88;9.07;;;-2.30;76.10;;;;;;5120904;28;20053;-71
2020/12/30 01:13:00;;;;;;;9.65;8.85;;;-2.30;75.40;;;;;;5123070;28;20039;-71
2020/12/30 01:15:32;;;;;;;9.88;9.07;;;-2.30;75.50;;;;;;5120192;28;20050;-71
2020/12/30 01:18:03;;;;;;;9.90;9.10;;;-2.30;75.20;;;;;;5122600;28;20142;-71
2020/12/30 01:20:35;;;;;;;10.02;9.20;;;-2.30;74.90;;;;;;5126064;28;20047;-72
2020/12/30 01:23:06;;;;;;;9.90;9.00;;;-2.40;76.50;;;;;;5124518;28;20129;-72
2020/12/30 01:25:37;;;;;;;10.10;9.30;;;-2.40;76.60;;;;;;5101384;28;20062;-72
2020/12/30 01:28:09;;;;;;;9.73;8.93;;;-2.40;77.00;;;;;;5122231;28;20042;-72
2020/12/30 01:30:41;;;;;;;9.77;8.98;;;-2.50;77.50;;;;;;5125472;28;20098;-71
2020/12/30 01:33:12;;;;;;;9.68;8.88;;;-2.60;77.60;;;;;;5122503;28;20870;-72
2020/12/30 01:35:44;;;;;;;10.15;9.18;;;-2.60;78.00;;;;;;5122062;28;20051;-71
2020/12/30 01:38:16;;;;;;;10.10;9.10;;;-2.60;78.70;;;;;;5122828;28;20046;-71
2020/12/30 01:40:47;;;;;;;9.73;8.93;;;-2.50;78.40;;;;;;5121999;28;20047;-71
2020/12/30 01:43:18;;;;;;;10.18;9.38;;;-2.60;78.10;;;;;;5121379;28;20113;-71
2020/12/30 01:45:51;;;;;;;10.57;9.68;;;-2.50;77.60;;;;;;5120750;28;20810;-72
2020/12/30 01:48:23;;;;;;;10.93;10.02;;;-2.50;77.30;;;;;;5122439;28;20070;-72
2020/12/30 01:50:55;;;;;;;9.85;9.05;;;-2.50;76.00;;;;;;5121567;28;20161;-72
2020/12/30 01:53:26;;;;;;;9.80;9.00;;;-2.50;76.20;;;;;;5122994;28;20464;-72
2020/12/30 01:55:58;;;;;;;9.85;9.05;;;-2.60;76.60;;;;;;5124878;28;20425;-71
2020/12/30 01:58:29;;;;;;;10.15;9.30;;;-2.60;75.70;;;;;;5122580;28;20050;-71
2020/12/30 02:01:02;;;;;;;10.27;9.38;;;-2.60;75.20;;;;;;5090288;28;20536;-72
2020/12/30 02:03:34;;;;;;;10.05;9.25;;;-2.70;74.70;;;;;;5122752;28;20039;-71
2020/12/30 02:06:06;;;;;;;10.18;9.27;;;-2.70;74.90;;;;;;5124520;28;20046;-72
2020/12/30 02:08:37;;;;;;;9.90;9.10;;;-2.80;74.50;;;;;;5120315;28;20039;-73
2020/12/30 02:11:09;;;;;;;9.85;8.95;;;-2.80;74.50;;;;;;5122686;28;20118;-72
2020/12/30 02:13:40;;;;;;;9.35;8.63;;;-2.80;74.50;;;;;;5118484;28;20121;-72
2020/12/30 02:16:12;;;;;;;10.00;9.13;;;-2.80;74.20;;;;;;5123984;28;20461;-70
2020/12/30 02:18:59;;;;;;;9.05;8.27;;;-2.80;74.10;;;;;;5121323;28;20049;-72
2020/12/30 02:21:31;;;;;;;9.20;8.50;;;-2.90;75.40;;;;;;5122044;28;20125;-71
2020/12/30 02:24:02;;;;;;;9.27;8.57;;;-2.90;76.80;;;;;;5124383;28;20043;-72
2020/12/30 02:26:34;;;;;;;9.50;8.80;;;-2.90;77.60;;;;;;5119005;28;20035;-71
2020/12/30 02:29:05;;;;;;;11.02;10.02;;;-2.90;76.60;;;;;;5123147;28;20043;-72
2020/12/30 02:31:37;;;;;;;10.23;9.38;;;-2.90;74.50;;;;;;5124563;28;20043;-71
2020/12/30 02:34:08;;;;;;;9.82;9.02;;;-3.00;74.20;;;;;;5121509;28;20051;-72
2020/12/30 02:36:40;;;;;;;10.05;9.15;;;-3.00;74.40;;;;;;5124208;28;20048;-71
2020/12/30 02:39:11;;;;;;;9.38;8.57;;;-3.00;74.30;;;;;;5121523;28;20039;-72
2020/12/30 02:41:44;;;;;;;9.48;8.68;;;-3.00;73.60;;;;;;5125348;28;20040;-71
2020/12/30 02:44:16;;;;;;;9.50;8.70;;;-3.10;74.20;;;;;;5123162;28;20051;-72
2020/12/30 02:46:47;;;;;;;9.48;8.57;;;-3.10;73.80;;;;;;5122822;28;20047;-72
2020/12/30 02:49:19;;;;;;;9.68;8.88;;;-3.20;73.80;;;;;;5122365;28;20047;-71
2020/12/30 02:51:50;;;;;;;9.20;8.40;;;-3.20;73.50;;;;;;5125220;28;20113;-72
2020/12/30 02:54:21;;;;;;;9.35;8.55;;;-3.30;74.10;;;;;;5122447;28;20047;-71
2020/12/30 02:56:53;;;;;;;9.00;8.30;;;-3.30;74.30;;;;;;5122579;28;20126;-71
2020/12/30 02:59:24;;;;;;;8.80;8.10;;;-3.30;74.40;;;;;;5124718;28;20452;-71
2020/12/30 03:01:56;;;;;;;8.80;8.10;;;-3.30;75.10;;;;;;5126362;28;20043;-72
2020/12/30 03:04:27;;;;;;;9.95;9.05;;;-3.30;75.40;;;;;;5127656;28;20043;-71
2020/12/30 03:06:58;;;;;;;9.30;8.55;;;-3.30;76.00;;;;;;5128354;28;20051;-72
2020/12/30 03:09:30;;;;;;;9.63;8.82;;;-3.30;76.30;;;;;;5123881;28;20040;-72
2020/12/30 03:12:01;;;;;;;9.27;8.48;;;-3.30;76.30;;;;;;5126945;28;20366;-72
2020/12/30 03:14:33;;;;;;;9.30;8.60;;;-3.40;78.00;;;;;;5126538;28;20106;-71
2020/12/30 03:17:04;;;;;;;9.10;8.30;;;-3.40;79.20;;;;;;5128531;28;20040;-71
2020/12/30 03:19:36;;;;;;;9.15;8.43;;;-3.30;79.00;;;;;;5111123;28;20047;-71
2020/12/30 03:22:07;;;;;;;9.00;8.27;;;-3.40;78.70;;;;;;5127244;28;20043;-72
2020/12/30 03:24:39;;;;;;;9.75;8.85;;;-3.40;78.20;;;;;;5126385;28;20262;-71
2020/12/30 03:27:10;;;;;;;8.60;7.90;;;-3.40;78.40;;;;;;5125623;28;20078;-71
2020/12/30 03:29:42;;;;;;;8.95;8.23;;;-3.40;78.60;;;;;;5128056;28;20078;-71
2020/12/30 03:32:13;;;;;;;8.95;8.25;;;-3.50;77.90;;;;;;5126396;28;20047;-71
2020/12/30 03:34:45;;;;;;;9.07;8.30;;;-3.50;78.10;;;;;;5124758;28;20626;-71
2020/12/30 03:37:16;;;;;;;9.13;8.32;;;-3.50;78.00;;;;;;5122287;28;20082;-72
2020/12/30 03:39:49;;;;;;;8.73;8.02;;;-3.50;75.50;;;;;;5124284;28;20067;-72
2020/12/30 03:42:21;;;;;;;9.20;8.40;;;-3.40;75.10;;;;;;5124154;28;20058;-72
2020/12/30 03:44:52;;;;;;;8.95;8.07;;;-3.40;75.00;;;;;;5126788;28;20121;-72
2020/12/30 03:47:24;;;;;;;8.65;7.95;;;-3.40;74.10;;;;;;5123300;28;20048;-72
2020/12/30 03:49:56;;;;;;;7.95;7.28;;;-3.40;75.10;;;;;;5126575;28;20053;-72
2020/12/30 03:52:27;;;;;;;8.55;7.85;;;-3.50;75.60;;;;;;5124432;28;20051;-72
2020/12/30 03:54:59;;;;;;;8.02;7.32;;;-3.50;75.40;;;;;;5125177;28;20038;-72
2020/12/30 03:57:30;;;;;;;8.15;7.53;;;-3.50;74.50;;;;;;5106295;28;20050;-72
2020/12/30 04:00:02;;;;;;;8.68;7.88;;;-3.50;75.90;;;;;;5125198;28;20283;-72
2020/12/30 04:02:43;;;;;;;8.68;7.97;;;-3.60;77.30;;;;;;5124988;28;20043;-72
2020/12/30 04:05:15;;;;;;;8.45;7.75;;;-3.60;76.70;;;;;;5108002;28;20055;-71
2020/12/30 04:07:47;;;;;;;8.85;8.00;;;-3.70;76.80;;;;;;5123710;28;20098;-70
2020/12/30 04:10:19;;;;;;;8.90;8.18;;;-3.60;76.40;;;;;;5125709;28;20070;-71
2020/12/30 04:12:50;;;;;;;8.00;7.30;;;-3.70;73.30;;;;;;5122471;28;20050;-71
2020/12/30 04:15:21;;;;;;;8.60;7.68;;;-3.70;72.70;;;;;;5124133;28;20050;-71
2020/12/30 04:17:53;;;;;;;8.27;7.47;;;-3.70;73.00;;;;;;5124963;28;20106;-71
2020/12/30 04:20:24;;;;;;;7.60;6.90;;;-3.70;71.90;;;;;;5121637;28;20151;-71
2020/12/30 04:22:56;;;;;;;8.30;7.60;;;-3.70;72.20;;;;;;5125440;28;20512;-72
2020/12/30 04:25:27;;;;;;;7.40;6.80;;;-3.80;72.30;;;;;;5125592;28;20098;-71
2020/12/30 04:27:58;;;;;;;7.70;6.97;;;-3.80;73.90;;;;;;5121178;28;20676;-71
2020/12/30 04:30:30;;;;;;;7.50;6.80;;;-3.80;74.80;;;;;;5122520;28;20047;-71
2020/12/30 04:33:01;;;;;;;7.90;7.20;;;-3.80;74.50;;;;;;5124629;28;20094;-72
2020/12/30 04:35:33;;;;;;;7.63;6.93;;;-3.80;73.90;;;;;;5125921;28;20043;-71
2020/12/30 04:38:04;;;;;;;8.30;7.60;;;-3.80;75.20;;;;;;5124567;28;20399;-72
2020/12/30 04:40:36;;;;;;;8.35;7.65;;;-3.80;77.10;;;;;;5123801;28;20105;-72
2020/12/30 04:43:09;;;;;;;8.50;7.75;;;-3.80;77.80;;;;;;5125402;28;20497;-71
2020/12/30 04:45:42;;;;;;;10.80;9.38;;;-3.70;78.50;;;;;;5124064;28;20035;-71
2020/12/30 04:48:14;;;;;;;9.43;8.52;;;-3.70;77.10;;;;;;5127287;28;20046;-70
2020/12/30 04:50:47;;;;;;;8.40;7.70;;;-3.60;77.00;;;;;;5122617;28;20102;-71
2020/12/30 04:53:23;;;;;;;8.57;7.88;;;-3.60;76.80;;;;;;5125175;28;20122;-71
2020/12/30 04:55:58;;;;;;;22.30;18.42;;;-3.50;77.10;;;;;;5122347;28;20047;-71
2020/12/30 04:58:31;;;;;;;15.32;13.18;;;-3.50;75.70;;;;;;5122508;28;20043;-71
2020/12/30 05:01:05;;;;;;;9.00;8.20;;;-3.50;75.30;;;;;;5122230;28;20054;-71
2020/12/30 05:03:45;;;;;;;9.93;8.93;;;-3.50;75.90;;;;;;5124527;28;20031;-71
2020/12/30 05:06:17;;;;;;;10.30;9.27;;;-3.60;74.80;;;;;;5125029;28;20280;-71
2020/12/30 05:08:55;;;;;;;10.13;9.23;;;-3.50;74.60;;;;;;5123751;28;20230;-72
2020/12/30 05:11:27;;;;;;;10.20;9.10;;;-3.50;74.10;;;;;;5124522;28;20094;-71
2020/12/30 05:13:58;;;;;;;9.10;8.20;;;-3.60;77.30;;;;;;5125379;28;20043;-71
2020/12/30 05:16:29;;;;;;;8.40;7.70;;;-3.60;76.60;;;;;;5123967;28;20042;-71
2020/12/30 05:19:04;;;;;;;8.40;7.70;;;-3.60;76.50;;;;;;5123894;28;20472;-72
2020/12/30 05:21:36;;;;;;;8.32;7.63;;;-3.50;77.80;;;;;;5125990;28;20058;-70
2020/12/30 05:24:09;;;;;;;8.43;7.72;;;-3.50;79.00;;;;;;5108724;28;20130;-70
2020/12/30 05:26:42;;;;;;;8.93;8.10;;;-3.50;79.20;;;;;;5123848;28;20043;-73
2020/12/30 05:29:13;;;;;;;8.10;7.43;;;-3.40;79.20;;;;;;5119146;28;20563;-73
2020/12/30 05:31:55;;;;;;;8.25;7.55;;;-3.40;79.60;;;;;;5121116;28;20525;-73
2020/12/30 05:34:26;;;;;;;8.30;7.57;;;-3.40;79.40;;;;;;5125689;28;20580;-73
2020/12/30 05:36:58;;;;;;;8.60;7.90;;;-3.40;80.10;;;;;;5125808;28;20533;-73
2020/12/30 05:39:32;;;;;;;8.63;7.93;;;-3.40;79.20;;;;;;5117324;28;20043;-73
2020/12/30 05:42:16;;;;;;;8.60;7.90;;;-3.40;79.50;;;;;;5122636;28;20047;-73
2020/12/30 05:44:49;;;;;;;8.60;7.90;;;-3.30;80.10;;;;;;5123192;28;20043;-72
2020/12/30 05:47:23;;;;;;;8.50;7.80;;;-3.40;75.90;;;;;;5106007;28;20050;-72
2020/12/30 05:49:57;;;;;;;8.65;7.70;;;-3.40;76.40;;;;;;5126278;28;20121;-73
2020/12/30 05:52:28;;;;;;;8.25;7.55;;;-3.40;76.60;;;;;;5123019;28;20051;-73
2020/12/30 05:55:01;;;;;;;8.10;7.40;;;-3.40;76.30;;;;;;5099296;28;20110;-73
2020/12/30 05:57:35;;;;;;;8.95;8.25;;;-3.40;79.30;;;;;;5100616;28;20449;-72
2020/12/30 06:00:12;;;;;;;8.68;7.97;;;-3.30;80.30;;;;;;5106899;28;20059;-72
2020/12/30 06:02:45;;;;;;;9.25;8.45;;;-3.30;77.40;;;;;;5123981;28;20074;-72
2020/12/30 06:05:22;;;;;;;9.60;8.70;;;-3.30;78.10;;;;;;5125710;28;20496;-72
2020/12/30 06:07:53;;;;;;;8.50;7.80;;;-3.20;77.80;;;;;;5124841;28;20051;-72
2020/12/30 06:10:27;;;;;;;9.20;8.40;;;-3.10;77.70;;;;;;5123055;28;20047;-72
2020/12/30 06:13:03;;;;;;;9.73;8.63;;;-3.10;77.40;;;;;;5121102;28;20047;-72
2020/12/30 06:15:35;;;;;;;10.00;9.10;;;-3.00;77.00;;;;;;5121781;28;20054;-73
2020/12/30 06:18:09;;;;;;;8.98;8.27;;;-3.10;76.60;;;;;;5105284;28;20134;-73
2020/12/30 06:20:41;;;;;;;8.68;7.88;;;-3.00;76.80;;;;;;5122507;28;20050;-74
2020/12/30 06:23:14;;;;;;;8.65;7.93;;;-3.00;76.70;;;;;;5123459;28;20046;-73
2020/12/30 06:25:47;;;;;;;8.63;7.82;;;-2.90;76.80;;;;;;5124941;28;20043;-74
2020/12/30 06:28:20;;;;;;;8.70;7.90;;;-2.90;77.20;;;;;;5120819;28;20472;-74
2020/12/30 06:30:53;;;;;;;8.77;8.07;;;-2.90;78.70;;;;;;5123877;28;20039;-73
2020/12/30 06:33:24;;;;;;;10.40;9.40;;;-2.90;79.40;;;;;;5126753;28;20502;-73
2020/12/30 06:35:56;;;;;;;9.82;8.93;;;-2.80;79.30;;;;;;5128899;28;20058;-73
2020/12/30 06:38:31;;;;;;;9.75;8.95;;;-2.80;78.30;;;;;;5126052;28;20039;-73
2020/12/30 06:41:04;;;;;;;11.55;10.55;;;-2.80;77.90;;;;;;5128845;28;20106;-73
2020/12/30 06:43:47;;;;;;;10.60;9.50;;;-2.80;77.90;;;;;;5127703;28;20109;-74
2020/12/30 06:46:25;;;;;;;9.45;8.55;;;-2.80;78.40;;;;;;5108702;28;20134;-74
2020/12/30 06:49:05;;;;;;;9.55;8.75;;;-2.80;79.00;;;;;;5124897;28;20043;-73
2020/12/30 06:51:36;;;;;;;;;;;-2.70;79.00;;;;;;5127134;28;20054;-73
2020/12/30 06:54:08;;;;;;;10.77;9.77;;;-2.70;80.40;;;;;;5102896;28;19926;-73
2020/12/30 06:56:43;;;;;;;10.63;9.73;;;-2.60;79.80;;;;;;5120679;28;20083;-73
2020/12/30 06:59:28;;;;;;;9.98;9.18;;;-2.60;79.30;;;;;;5125747;28;20058;-73
2020/12/30 07:02:03;;;;;;;10.52;9.52;;;-2.60;79.90;;;;;;5122531;28;20051;-72
2020/12/30 07:04:35;;;;;;;9.45;7.78;;;-2.60;78.80;;;;;;5128177;28;20047;-72
2020/12/30 07:07:25;;;;;;;8.70;8.00;;;-2.60;80.40;;;;;;5092562;28;21156;-73
2020/12/30 07:09:56;;;;;;;9.75;8.95;;;-2.50;81.50;;;;;;5126723;28;20042;-72
2020/12/30 07:12:38;;;;;;;11.10;10.00;;;-2.50;81.30;;;;;;5119135;28;20051;-74
2020/12/30 07:15:10;;;;;;;12.85;10.82;;;-2.50;77.40;;;;;;5127028;28;20078;-72
2020/12/30 07:17:41;;;;;;;10.55;9.60;;;-2.70;77.30;;;;;;5109866;28;20573;-71
2020/12/30 07:20:21;;;;;;;11.45;9.52;;;-2.70;77.50;;;;;;5120704;28;20054;-70
2020/12/30 07:22:52;;;;;;;12.10;10.40;;;-2.80;78.40;;;;;;5126438;28;20046;-70
2020/12/30 07:25:27;;;;;;;11.40;10.10;;;-2.70;78.20;;;;;;5127780;28;20338;-70
2020/12/30 07:28:00;;;;;;;11.00;9.90;;;-2.70;78.60;;;;;;5122934;28;20684;-70
2020/12/30 07:30:32;;;;;;;11.55;10.35;;;-2.60;78.50;;;;;;5118602;28;20039;-70
2020/12/30 07:33:03;;;;;;;10.30;9.23;;;-2.50;78.60;;;;;;5104290;28;20066;-70
2020/12/30 07:35:35;;;;;;;10.63;9.63;;;-2.50;78.50;;;;;;5121753;28;20482;-70
2020/12/30 07:38:12;;;;;;;9.48;8.48;;;-2.40;78.30;;;;;;5126377;28;20129;-70
2020/12/30 07:40:43;;;;;;;10.05;9.05;;;-2.50;78.30;;;;;;5124555;28;20059;-70
2020/12/30 07:43:18;;;;;;;10.30;9.35;;;-2.70;78.40;;;;;;5125949;28;20409;-70
2020/12/30 07:45:49;;;;;;;9.55;8.63;;;-2.80;78.90;;;;;;5125085;28;20047;-70
2020/12/30 07:48:25;;;;;;;10.05;9.02;;;-2.70;79.30;;;;;;5126463;28;20122;-70
2020/12/30 07:50:56;;;;;;;13.23;9.38;;;-2.60;79.10;;;;;;5127064;28;20074;-70
2020/12/30 07:53:27;;;;;;;10.00;9.10;;;-2.50;78.80;;;;;;5110427;28;20047;-70
2020/12/30 07:55:59;;;;;;;10.35;8.98;;;-2.30;78.60;;;;;;5119126;28;20357;-70
2020/12/30 07:58:31;;;;;;;10.05;9.15;;;-2.20;77.80;;;;;;5102983;28;20582;-69
2020/12/30 08:01:02;;;;;;;9.88;8.90;;;-2.20;77.60;;;;;;5121009;28;20087;-70
2020/12/30 08:03:34;;;;;;;10.27;9.27;;;-2.00;78.00;;;;;;5120293;28;20631;-70
2020/12/30 08:06:08;;;;;;;9.48;8.60;;;-1.90;78.00;;;;;;5123583;28;20087;-70
2020/12/30 08:08:49;;;;;;;10.18;9.27;;;-1.70;77.80;;;;;;5123024;28;20075;-70
2020/12/30 08:11:21;;;;;;;9.70;8.70;;;-1.60;76.90;;;;;;5131288;28;20043;-70
2020/12/30 08:13:52;;;;;;;11.27;10.18;;;-1.50;76.10;;;;;;5146178;28;20050;-70
2020/12/30 08:16:25;;;;;;;11.35;10.13;;;-1.40;75.30;;;;;;5144749;28;20177;-71
2020/12/30 08:18:56;;;;;;;11.70;10.48;;;-1.50;75.00;;;;;;5144228;28;20050;-70
2020/12/30 08:21:28;;;;;;;11.20;10.10;;;-1.70;76.10;;;;;;5130184;28;20051;-72
2020/12/30 08:24:09;;;;;;;12.27;10.98;;;-1.70;77.00;;;;;;5122855;28;20064;-74
2020/12/30 08:26:41;;;;;;;11.50;10.50;;;-1.50;77.20;;;;;;5131755;28;20125;-72
2020/12/30 08:29:12;;;;;;;11.77;10.68;;;-1.40;76.40;;;;;;5142429;28;20039;-72
2020/12/30 08:31:56;;;;;;;11.07;9.98;;;-1.20;76.10;;;;;;5129011;28;20035;-72
2020/12/30 08:34:32;;;;;;;11.60;10.50;;;-1.10;76.40;;;;;;5121350;28;20050;-72
2020/12/30 08:37:09;;;;;;;11.73;10.52;;;-1.00;75.80;;;;;;5120312;28;20456;-73
2020/12/30 08:39:45;;;;;;;11.18;10.07;;;-0.90;75.30;;;;;;5125380;28;20039;-73
2020/12/30 08:42:42;;;;;;;11.98;9.88;;;-0.80;74.80;;;;;;5123668;28;20043;-72
2020/12/30 08:45:16;;;;;;;12.55;11.25;;;-0.80;73.90;;;;;;5092017;28;20051;-72
2020/12/30 08:47:53;;;;;;;14.25;12.52;;;-0.80;74.10;;;;;;5120926;28;20055;-72
2020/12/30 08:50:27;;;;;;;13.05;11.68;;;-0.70;74.60;;;;;;5124207;28;20708;-72
2020/12/30 08:53:01;;;;;;;12.52;11.13;;;-0.70;74.30;;;;;;5122724;28;20043;-72
2020/12/30 08:55:32;;;;;;;12.50;10.38;;;-0.60;74.00;;;;;;5122153;28;20142;-73
2020/12/30 08:58:04;;;;;;;12.32;11.23;;;-0.60;73.80;;;;;;5120428;28;20047;-72
2020/12/30 09:00:37;;;;;;;11.52;9.82;;;-0.60;73.70;;;;;;5118916;28;20122;-72
2020/12/30 09:03:14;;;;;;;11.80;10.57;;;-0.60;73.00;;;;;;5119938;28;20071;-72
2020/12/30 09:05:53;;;;;;;11.85;10.60;;;-0.50;74.20;;;;;;5118516;28;20050;-72
2020/12/30 09:08:27;;;;;;;11.73;10.63;;;-0.40;73.20;;;;;;5123889;28;20779;-71
2020/12/30 09:10:58;;;;;;;11.77;10.43;;;-0.40;73.30;;;;;;5121529;28;20047;-71
2020/12/30 09:13:30;;;;;;;11.20;10.15;;;-0.30;73.70;;;;;;5123449;28;20090;-72
2020/12/30 09:16:04;;;;;;;11.10;10.10;;;-0.20;73.30;;;;;;5122506;28;20055;-71
2020/12/30 09:18:37;;;;;;;10.77;9.88;;;-0.10;71.60;;;;;;5119097;28;20050;-71
2020/12/30 09:21:25;;;;;;;13.55;11.10;;;0.00;72.10;;;;;;5119098;28;20058;-71
2020/12/30 09:23:56;;;;;;;12.32;11.13;;;-0.20;71.40;;;;;;5113876;28;20047;-71
2020/12/30 09:26:30;;;;;;;15.73;13.20;;;-0.10;73.20;;;;;;5114704;28;20054;-71
2020/12/30 09:29:16;;;;;;;14.05;11.38;;;0.00;73.20;;;;;;5120766;28;20383;-70
2020/12/30 09:31:52;;;;;;;14.38;12.38;;;-0.10;71.60;;;;;;5122237;28;20453;-70
2020/12/30 09:34:30;;;;;;;14.73;12.98;;;-0.20;72.40;;;;;;5100665;28;20098;-71
2020/12/30 09:37:01;;;;;;;13.50;11.82;;;-0.30;72.10;;;;;;5118159;28;20047;-71
2020/12/30 09:39:33;;;;;;;13.48;12.18;;;-0.40;72.60;;;;;;5104642;28;20043;-71
2020/12/30 09:42:05;;;;;;;14.10;12.68;;;-0.30;72.50;;;;;;5120711;28;20039;-71
2020/12/30 09:44:37;;;;;;;14.32;11.95;;;-0.20;70.60;;;;;;5122559;28;20050;-72
2020/12/30 09:47:10;;;;;;;15.38;12.25;;;-0.30;72.70;;;;;;5125239;28;20051;-71
2020/12/30 09:49:42;;;;;;;13.98;12.35;;;-0.20;72.10;;;;;;5127089;28;20046;-71
2020/12/30 09:52:13;;;;;;;19.83;13.48;;;0.00;72.00;;;;;;5125285;28;20047;-71
2020/12/30 09:54:45;;;;;;;14.32;12.45;;;0.20;72.00;;;;;;5125001;28;20702;-71
2020/12/30 09:57:16;;;;;;;13.40;12.00;;;0.30;71.50;;;;;;5101042;28;20125;-71
2020/12/30 09:59:47;;;;;;;14.40;12.90;;;0.40;71.80;;;;;;5123571;28;20049;-71
2020/12/30 10:02:19;;;;;;;13.52;11.68;;;0.60;71.90;;;;;;5123048;28;20042;-70
2020/12/30 10:04:50;;;;;;;13.68;11.52;;;0.70;71.00;;;;;;5120868;28;21032;-71
2020/12/30 10:07:22;;;;;;;14.27;11.60;;;0.80;69.40;;;;;;5102492;28;20074;-70
2020/12/30 10:09:53;;;;;;;13.43;12.05;;;0.80;70.20;;;;;;5123048;28;20130;-70
2020/12/30 10:12:25;;;;;;;14.32;12.93;;;0.80;69.60;;;;;;5118705;28;20055;-70
2020/12/30 10:14:56;;;;;;;13.73;12.43;;;0.80;69.70;;;;;;5122260;28;20046;-70
2020/12/30 10:17:27;;;;;;;14.20;12.70;;;0.90;70.60;;;;;;5120335;28;20687;-70
2020/12/30 10:19:59;;;;;;;14.25;12.75;;;1.00;70.80;;;;;;5123068;28;20050;-70
2020/12/30 10:22:31;;;;;;;14.02;12.57;;;1.20;70.40;;;;;;5106126;28;20039;-71
2020/12/30 10:25:12;;;;;;;13.40;12.05;;;1.30;70.70;;;;;;5124052;28;20035;-70
2020/12/30 10:27:45;;;;;;;12.75;11.52;;;1.50;70.40;;;;;;5121418;28;20043;-71
2020/12/30 10:30:16;;;;;;;12.75;11.55;;;1.50;69.10;;;;;;5118416;28;20038;-71
2020/12/30 10:32:48;;;;;;;12.18;10.98;;;1.60;69.80;;;;;;5117323;28;20042;-71
2020/12/30 10:35:19;;;;;;;13.05;11.75;;;1.70;69.90;;;;;;5120903;28;20758;-70
2020/12/30 10:37:52;;;;;;;12.05;10.98;;;1.80;69.90;;;;;;5100252;28;20047;-71
2020/12/30 10:40:24;;;;;;;11.68;10.65;;;1.90;70.10;;;;;;5117368;28;20169;-72
2020/12/30 10:42:55;;;;;;;11.57;10.45;;;1.90;67.20;;;;;;5120908;28;20105;-72
2020/12/30 10:45:27;;;;;;;11.40;10.40;;;1.90;68.00;;;;;;5118269;28;20043;-71
2020/12/30 10:47:58;;;;;;;11.50;10.50;;;1.90;68.30;;;;;;5098412;28;20098;-71
2020/12/30 10:50:30;;;;;;;11.90;10.80;;;2.00;70.30;;;;;;5117949;28;20101;-71
2020/12/30 10:53:01;;;;;;;11.73;10.75;;;2.10;69.50;;;;;;5101289;29;20051;-73
2020/12/30 10:55:33;;;;;;;11.73;10.73;;;2.20;69.40;;;;;;5117587;28;20051;-73
2020/12/30 10:58:05;;;;;;;11.75;10.75;;;2.40;69.20;;;;;;5120700;28;20074;-71
2020/12/30 11:00:37;;;;;;;11.50;10.50;;;2.50;68.90;;;;;;5118974;28;20051;-70
2020/12/30 11:03:09;;;;;;;12.00;10.90;;;2.60;68.40;;;;;;5104874;28;20054;-71
2020/12/30 11:05:40;;;;;;;11.60;10.40;;;2.60;67.80;;;;;;5119272;28;20040;-72
2020/12/30 11:08:12;;;;;;;11.00;10.10;;;2.60;67.30;;;;;;5115519;28;20569;-73
2020/12/30 11:10:43;;;;;;;11.18;10.18;;;2.60;67.30;;;;;;5116492;28;20043;-72
2020/12/30 11:13:15;;;;;;;11.05;10.07;;;2.70;67.10;;;;;;5102577;28;20052;-73
2020/12/30 11:15:48;;;;;;;11.20;10.30;;;2.80;68.50;;;;;;5117392;28;20079;-74
2020/12/30 11:18:20;;;;;;;11.35;10.45;;;2.90;68.10;;;;;;5118265;28;20154;-73
2020/12/30 11:20:51;;;;;;;11.38;10.27;;;3.10;69.00;;;;;;5119733;28;20051;-72
2020/12/30 11:23:23;;;;;;;10.55;9.65;;;3.10;68.60;;;;;;5120137;28;20051;-71
2020/12/30 11:25:54;;;;;;;11.35;10.45;;;3.10;68.50;;;;;;5116867;28;20794;-73
2020/12/30 11:28:26;;;;;;;12.05;10.95;;;3.10;69.20;;;;;;5122482;28;20039;-73
2020/12/30 11:30:57;;;;;;;12.43;11.35;;;3.10;68.20;;;;;;5117533;28;20474;-74
2020/12/30 11:33:29;;;;;;;12.02;10.88;;;3.10;67.40;;;;;;5116564;28;20136;-72
2020/12/30 11:36:00;;;;;;;11.82;10.73;;;3.20;68.60;;;;;;5118691;28;20078;-73
2020/12/30 11:38:32;;;;;;;12.05;10.85;;;3.20;68.00;;;;;;5101493;28;20079;-73
2020/12/30 11:41:03;;;;;;;12.65;11.55;;;3.30;69.00;;;;;;5122428;28;20055;-70
2020/12/30 11:43:35;;;;;;;11.73;10.55;;;3.30;69.30;;;;;;5122168;28;20043;-75
2020/12/30 11:46:06;;;;;;;12.30;11.18;;;3.40;68.70;;;;;;5120959;28;20623;-70
2020/12/30 11:48:38;;;;;;;11.05;10.07;;;3.40;68.00;;;;;;5119190;28;20043;-72
2020/12/30 11:51:09;;;;;;;11.65;10.55;;;3.50;68.30;;;;;;5104372;28;20401;-73
2020/12/30 11:53:42;;;;;;;11.38;10.38;;;3.50;68.70;;;;;;5100631;28;20055;-71
2020/12/30 11:56:22;;;;;;;11.70;10.60;;;3.50;68.90;;;;;;5121318;28;20049;-72
2020/12/30 11:58:54;;;;;;;11.15;10.10;;;3.50;67.30;;;;;;5118962;28;20426;-69
2020/12/30 12:01:34;;;;;;;12.00;10.68;;;3.50;68.90;;;;;;5119103;28;20537;-69
2020/12/30 12:04:05;;;;;;;12.27;10.65;;;3.50;67.30;;;;;;5121307;28;20102;-69
2020/12/30 12:06:37;;;;;;;11.30;10.30;;;3.50;68.20;;;;;;5121060;28;20095;-69
2020/12/30 12:09:09;;;;;;;11.70;10.68;;;3.50;68.60;;;;;;5121912;28;20391;-69
2020/12/30 12:11:41;;;;;;;12.32;11.23;;;3.50;68.70;;;;;;5118926;28;20054;-71
2020/12/30 12:14:12;;;;;;;12.25;10.85;;;3.60;68.60;;;;;;5123191;28;20058;-71
2020/12/30 12:16:55;;;;;;;13.40;12.15;;;3.60;66.70;;;;;;5117422;28;20043;-70
2020/12/30 12:19:26;;;;;;;11.82;10.65;;;3.60;67.60;;;;;;5117945;28;20051;-73
2020/12/30 12:21:58;;;;;;;12.52;11.23;;;3.50;67.60;;;;;;5118791;28;20422;-70
2020/12/30 12:24:29;;;;;;;12.02;10.82;;;3.50;67.70;;;;;;5121131;28;20098;-72
2020/12/30 12:27:01;;;;;;;12.10;10.95;;;3.50;68.60;;;;;;5118395;28;20043;-72
2020/12/30 12:29:35;;;;;;;12.27;11.18;;;3.50;68.70;;;;;;5116949;28;20051;-71
2020/12/30 12:32:12;;;;;;;12.95;11.65;;;3.40;68.70;;;;;;5114979;28;20536;-71
2020/12/30 12:34:46;;;;;;;13.13;11.82;;;3.40;69.20;;;;;;5117012;28;20051;-70
2020/12/30 12:37:20;;;;;;;13.60;12.30;;;3.40;69.70;;;;;;5118276;28;20391;-70
2020/12/30 12:39:52;;;;;;;14.07;12.68;;;3.50;69.50;;;;;;5118165;28;20042;-70
2020/12/30 12:42:24;;;;;;;13.65;12.20;;;3.40;67.50;;;;;;5106382;28;20058;-69
2020/12/30 12:44:55;;;;;;;13.98;12.68;;;3.40;69.00;;;;;;5120351;28;20664;-75
2020/12/30 12:47:27;;;;;;;13.60;12.10;;;3.40;68.00;;;;;;5119624;28;20710;-71
2020/12/30 12:49:58;;;;;;;12.45;11.35;;;3.30;67.50;;;;;;5120646;28;20039;-70
2020/12/30 12:52:30;;;;;;;12.65;11.45;;;3.30;68.60;;;;;;5122282;28;20110;-72
2020/12/30 12:55:01;;;;;;;12.18;10.88;;;3.30;69.00;;;;;;5124192;28;20702;-70
2020/12/30 12:57:33;;;;;;;13.57;11.77;;;3.30;69.50;;;;;;5123968;28;20529;-72
2020/12/30 13:00:05;;;;;;;13.85;12.55;;;3.30;69.70;;;;;;5121977;28;20106;-72
2020/12/30 13:02:37;;;;;;;13.68;12.27;;;3.30;68.90;;;;;;5118481;28;20159;-72
2020/12/30 13:05:08;;;;;;;13.43;12.07;;;3.20;68.10;;;;;;5121208;28;20035;-71
2020/12/30 13:07:39;;;;;;;13.48;12.18;;;3.00;68.60;;;;;;5116859;28;20090;-70
2020/12/30 13:10:11;;;;;;;15.27;13.77;;;3.00;69.10;;;;;;5120200;28;20035;-71